In Rescue
 
Open Full Screen Window  High Contrast Mode
Wind Gusting 00 knots
04
February 24, 2020 5:22 PM CST
Weather Information
Wind Direction
  020 °
Wind Speed
  04 kt (5 mph)
Wind Gust
  00 kt (0 mph)
Altimeter
30.01 in
Visibility
10 SM
Temperature
04° C
39° F
Dewpoint
-12° C
10° F
Humidity
30%
1hr Rain Fall
00.00 in.
24hr Rain Fall
00.00 in.
Sky Condition
Clear
VFR

METAR KCOQ 242322Z AUTO 02004KT 10SM CLR 04/M12 A3001 RMK AO2

FAA Disclaimer: The data displayed is for advisory purposes only and is not to be used for flight planning or operations.